sensor_id;sensor_type;location;lat;lon;timestamp;temperature;humidity
3312;DHT22;1668;49.648;8.570;2022-10-31T00:02:05;13.00;99.90
3312;DHT22;1668;49.648;8.570;2022-10-31T00:04:32;13.00;99.90
3312;DHT22;1668;49.648;8.570;2022-10-31T00:07:00;13.00;99.90
3312;DHT22;1668;49.648;8.570;2022-10-31T00:09:27;13.00;99.90
3312;DHT22;1668;49.648;8.570;2022-10-31T00:11:54;12.90;99.90
3312;DHT22;1668;49.648;8.570;2022-10-31T00:14:21;12.90;99.90
3312;DHT22;1668;49.648;8.570;2022-10-31T00:16:48;12.90;99.90
3312;DHT22;1668;49.648;8.570;2022-10-31T00:19:15;12.90;99.90
3312;DHT22;1668;49.648;8.570;2022-10-31T00:21:42;12.90;99.90
3312;DHT22;1668;49.648;8.570;2022-10-31T00:24:10;12.80;99.90
3312;DHT22;1668;49.648;8.570;2022-10-31T00:26:37;12.80;99.90
3312;DHT22;1668;49.648;8.570;2022-10-31T00:29:04;12.80;99.90
3312;DHT22;1668;49.648;8.570;2022-10-31T00:31:31;12.70;99.90
3312;DHT22;1668;49.648;8.570;2022-10-31T00:33:58;12.70;99.90
3312;DHT22;1668;49.648;8.570;2022-10-31T00:36:25;12.70;99.90
3312;DHT22;1668;49.648;8.570;2022-10-31T00:38:52;12.70;99.90
3312;DHT22;1668;49.648;8.570;2022-10-31T00:41:20;12.70;99.90
3312;DHT22;1668;49.648;8.570;2022-10-31T00:43:47;12.70;99.90
3312;DHT22;1668;49.648;8.570;2022-10-31T00:46:14;12.60;99.90
3312;DHT22;1668;49.648;8.570;2022-10-31T00:48:41;12.70;99.90
3312;DHT22;1668;49.648;8.570;2022-10-31T00:51:08;12.70;99.90
3312;DHT22;1668;49.648;8.570;2022-10-31T00:53:34;12.60;99.90
3312;DHT22;1668;49.648;8.570;2022-10-31T00:56:02;12.60;99.90
3312;DHT22;1668;49.648;8.570;2022-10-31T00:58:31;12.60;99.90
3312;DHT22;1668;49.648;8.570;2022-10-31T01:00:57;12.60;99.90
3312;DHT22;1668;49.648;8.570;2022-10-31T01:03:26;12.60;99.90
3312;DHT22;1668;49.648;8.570;2022-10-31T01:05:58;12.60;99.90
3312;DHT22;1668;49.648;8.570;2022-10-31T01:08:25;12.60;99.90
3312;DHT22;1668;49.648;8.570;2022-10-31T01:11:04;12.60;99.90
3312;DHT22;1668;49.648;8.570;2022-10-31T01:13:33;12.50;99.90
3312;DHT22;1668;49.648;8.570;2022-10-31T01:16:00;12.50;99.90
3312;DHT22;1668;49.648;8.570;2022-10-31T01:18:28;12.50;99.90
3312;DHT22;1668;49.648;8.570;2022-10-31T01:21:00;12.50;99.90
3312;DHT22;1668;49.648;8.570;2022-10-31T01:23:28;12.50;99.90
3312;DHT22;1668;49.648;8.570;2022-10-31T01:26:03;12.50;99.90
3312;DHT22;1668;49.648;8.570;2022-10-31T01:28:32;12.50;99.90
3312;DHT22;1668;49.648;8.570;2022-10-31T01:31:04;12.50;99.90
3312;DHT22;1668;49.648;8.570;2022-10-31T01:33:31;12.50;99.90
3312;DHT22;1668;49.648;8.570;2022-10-31T01:35:58;12.40;99.90
3312;DHT22;1668;49.648;8.570;2022-10-31T01:38:25;12.40;99.90
3312;DHT22;1668;49.648;8.570;2022-10-31T01:40:52;12.40;99.90
3312;DHT22;1668;49.648;8.570;2022-10-31T01:43:19;12.40;99.90
3312;DHT22;1668;49.648;8.570;2022-10-31T01:45:51;12.40;99.90
3312;DHT22;1668;49.648;8.570;2022-10-31T01:48:22;12.40;99.90
3312;DHT22;1668;49.648;8.570;2022-10-31T01:50:53;12.40;99.90
3312;DHT22;1668;49.648;8.570;2022-10-31T01:53:21;12.40;99.90
3312;DHT22;1668;49.648;8.570;2022-10-31T01:55:49;12.40;99.90
3312;DHT22;1668;49.648;8.570;2022-10-31T01:58:20;12.40;99.90
3312;DHT22;1668;49.648;8.570;2022-10-31T02:00:53;12.40;99.90
3312;DHT22;1668;49.648;8.570;2022-10-31T02:03:22;12.40;99.90
3312;DHT22;1668;49.648;8.570;2022-10-31T02:05:50;12.40;99.90
3312;DHT22;1668;49.648;8.570;2022-10-31T02:08:21;12.40;99.90
3312;DHT22;1668;49.648;8.570;2022-10-31T02:10:49;12.30;99.90
3312;DHT22;1668;49.648;8.570;2022-10-31T02:13:17;12.30;99.90
3312;DHT22;1668;49.648;8.570;2022-10-31T02:15:49;12.30;99.90
3312;DHT22;1668;49.648;8.570;2022-10-31T02:18:17;12.30;99.90
3312;DHT22;1668;49.648;8.570;2022-10-31T02:20:53;12.30;99.90
3312;DHT22;1668;49.648;8.570;2022-10-31T02:23:52;12.30;99.90
3312;DHT22;1668;49.648;8.570;2022-10-31T02:26:43;12.30;99.90
3312;DHT22;1668;49.648;8.570;2022-10-31T02:29:50;12.30;99.90
3312;DHT22;1668;49.648;8.570;2022-10-31T02:32:25;12.30;99.90
3312;DHT22;1668;49.648;8.570;2022-10-31T02:34:58;12.30;99.90
3312;DHT22;1668;49.648;8.570;2022-10-31T02:37:34;12.30;99.90
3312;DHT22;1668;49.648;8.570;2022-10-31T02:40:09;12.20;99.90
3312;DHT22;1668;49.648;8.570;2022-10-31T02:42:42;12.20;99.90
3312;DHT22;1668;49.648;8.570;2022-10-31T02:45:14;12.20;99.90
3312;DHT22;1668;49.648;8.570;2022-10-31T02:47:46;12.20;99.90
3312;DHT22;1668;49.648;8.570;2022-10-31T02:50:18;12.20;99.90
3312;DHT22;1668;49.648;8.570;2022-10-31T02:52:50;12.20;99.90
3312;DHT22;1668;49.648;8.570;2022-10-31T02:55:50;12.20;99.90
3312;DHT22;1668;49.648;8.570;2022-10-31T02:58:21;12.20;99.90
3312;DHT22;1668;49.648;8.570;2022-10-31T03:01:10;12.10;99.90
3312;DHT22;1668;49.648;8.570;2022-10-31T03:04:00;12.10;99.90
3312;DHT22;1668;49.648;8.570;2022-10-31T03:06:33;12.00;99.90
3312;DHT22;1668;49.648;8.570;2022-10-31T03:09:05;12.00;99.90
3312;DHT22;1668;49.648;8.570;2022-10-31T03:11:39;12.00;99.90
3312;DHT22;1668;49.648;8.570;2022-10-31T03:14:11;12.00;99.90
3312;DHT22;1668;49.648;8.570;2022-10-31T03:16:43;12.00;99.90
3312;DHT22;1668;49.648;8.570;2022-10-31T03:19:16;12.00;99.90
3312;DHT22;1668;49.648;8.570;2022-10-31T03:21:46;12.00;99.90
3312;DHT22;1668;49.648;8.570;2022-10-31T03:24:15;12.00;99.90
3312;DHT22;1668;49.648;8.570;2022-10-31T03:26:46;12.00;99.90
3312;DHT22;1668;49.648;8.570;2022-10-31T03:29:16;12.00;99.90
3312;DHT22;1668;49.648;8.570;2022-10-31T03:31:46;12.00;99.90
3312;DHT22;1668;49.648;8.570;2022-10-31T03:34:16;12.00;99.90
3312;DHT22;1668;49.648;8.570;2022-10-31T03:36:45;12.00;99.90
3312;DHT22;1668;49.648;8.570;2022-10-31T03:39:15;12.00;99.90
3312;DHT22;1668;49.648;8.570;2022-10-31T03:41:45;11.90;99.90
3312;DHT22;1668;49.648;8.570;2022-10-31T03:44:16;11.90;99.90
3312;DHT22;1668;49.648;8.570;2022-10-31T03:46:44;11.90;99.90
3312;DHT22;1668;49.648;8.570;2022-10-31T03:49:12;11.90;99.90
3312;DHT22;1668;49.648;8.570;2022-10-31T03:51:45;11.90;99.90
3312;DHT22;1668;49.648;8.570;2022-10-31T03:54:20;11.90;99.90
3312;DHT22;1668;49.648;8.570;2022-10-31T03:56:51;11.90;99.90
3312;DHT22;1668;49.648;8.570;2022-10-31T03:59:24;11.90;99.90
3312;DHT22;1668;49.648;8.570;2022-10-31T04:01:55;11.90;99.90
3312;DHT22;1668;49.648;8.570;2022-10-31T04:04:24;11.90;99.90
3312;DHT22;1668;49.648;8.570;2022-10-31T04:06:56;11.90;99.90
3312;DHT22;1668;49.648;8.570;2022-10-31T04:09:24;11.90;99.90
3312;DHT22;1668;49.648;8.570;2022-10-31T04:11:54;11.90;99.90
3312;DHT22;1668;49.648;8.570;2022-10-31T04:14:22;11.80;99.90
3312;DHT22;1668;49.648;8.570;2022-10-31T04:16:50;11.80;99.90
3312;DHT22;1668;49.648;8.570;2022-10-31T04:19:17;11.80;99.90
3312;DHT22;1668;49.648;8.570;2022-10-31T04:21:44;11.80;99.90
3312;DHT22;1668;49.648;8.570;2022-10-31T04:24:12;11.80;99.90
3312;DHT22;1668;49.648;8.570;2022-10-31T04:26:39;11.80;99.90
3312;DHT22;1668;49.648;8.570;2022-10-31T04:29:06;11.80;99.90
3312;DHT22;1668;49.648;8.570;2022-10-31T04:31:33;11.80;99.90
3312;DHT22;1668;49.648;8.570;2022-10-31T04:34:00;11.80;99.90
3312;DHT22;1668;49.648;8.570;2022-10-31T04:36:26;11.70;99.90
3312;DHT22;1668;49.648;8.570;2022-10-31T04:38:53;11.70;99.90
3312;DHT22;1668;49.648;8.570;2022-10-31T04:41:22;11.70;99.90
3312;DHT22;1668;49.648;8.570;2022-10-31T04:43:48;11.70;99.90
3312;DHT22;1668;49.648;8.570;2022-10-31T04:46:15;11.70;99.90
3312;DHT22;1668;49.648;8.570;2022-10-31T04:48:42;11.60;99.90
3312;DHT22;1668;49.648;8.570;2022-10-31T04:51:09;11.60;99.90
3312;DHT22;1668;49.648;8.570;2022-10-31T04:53:36;11.50;99.90
3312;DHT22;1668;49.648;8.570;2022-10-31T04:56:03;11.50;99.90
3312;DHT22;1668;49.648;8.570;2022-10-31T04:58:31;11.50;99.90
3312;DHT22;1668;49.648;8.570;2022-10-31T05:00:58;11.60;99.90
3312;DHT22;1668;49.648;8.570;2022-10-31T05:03:25;11.60;99.90
3312;DHT22;1668;49.648;8.570;2022-10-31T05:05:52;11.60;99.90
3312;DHT22;1668;49.648;8.570;2022-10-31T05:08:19;11.60;99.90
3312;DHT22;1668;49.648;8.570;2022-10-31T05:10:45;11.50;99.90
3312;DHT22;1668;49.648;8.570;2022-10-31T05:13:12;11.60;99.90
3312;DHT22;1668;49.648;8.570;2022-10-31T05:15:41;11.50;99.90
3312;DHT22;1668;49.648;8.570;2022-10-31T05:18:08;11.50;99.90
3312;DHT22;1668;49.648;8.570;2022-10-31T05:20:35;11.50;99.90
3312;DHT22;1668;49.648;8.570;2022-10-31T05:23:02;11.50;99.90
3312;DHT22;1668;49.648;8.570;2022-10-31T05:25:29;11.40;99.90
3312;DHT22;1668;49.648;8.570;2022-10-31T05:27:56;11.40;99.90
3312;DHT22;1668;49.648;8.570;2022-10-31T05:30:25;11.40;99.90
3312;DHT22;1668;49.648;8.570;2022-10-31T05:32:54;11.40;99.90
3312;DHT22;1668;49.648;8.570;2022-10-31T05:35:23;11.40;99.90
3312;DHT22;1668;49.648;8.570;2022-10-31T05:37:50;11.40;99.90
3312;DHT22;1668;49.648;8.570;2022-10-31T05:40:18;11.30;99.90
3312;DHT22;1668;49.648;8.570;2022-10-31T05:42:45;11.30;99.90
3312;DHT22;1668;49.648;8.570;2022-10-31T05:45:14;11.30;99.90
3312;DHT22;1668;49.648;8.570;2022-10-31T05:47:41;11.30;99.90
3312;DHT22;1668;49.648;8.570;2022-10-31T05:50:10;11.30;99.90
3312;DHT22;1668;49.648;8.570;2022-10-31T05:52:37;11.30;99.90
3312;DHT22;1668;49.648;8.570;2022-10-31T05:55:04;11.20;99.90
3312;DHT22;1668;49.648;8.570;2022-10-31T05:57:32;11.20;99.90
3312;DHT22;1668;49.648;8.570;2022-10-31T06:00:00;11.20;99.90
3312;DHT22;1668;49.648;8.570;2022-10-31T06:02:26;11.20;99.90
3312;DHT22;1668;49.648;8.570;2022-10-31T06:04:57;11.20;99.90
3312;DHT22;1668;49.648;8.570;2022-10-31T06:07:26;11.10;99.90
3312;DHT22;1668;49.648;8.570;2022-10-31T06:09:53;11.10;99.90
3312;DHT22;1668;49.648;8.570;2022-10-31T06:12:20;11.10;99.90
3312;DHT22;1668;49.648;8.570;2022-10-31T06:14:46;11.10;99.90
3312;DHT22;1668;49.648;8.570;2022-10-31T06:17:13;11.10;99.90
3312;DHT22;1668;49.648;8.570;2022-10-31T06:19:40;11.10;99.90
3312;DHT22;1668;49.648;8.570;2022-10-31T06:22:07;11.10;99.90
3312;DHT22;1668;49.648;8.570;2022-10-31T06:24:37;11.10;99.90
3312;DHT22;1668;49.648;8.570;2022-10-31T06:27:05;11.00;99.90
3312;DHT22;1668;49.648;8.570;2022-10-31T06:29:32;11.00;99.90
3312;DHT22;1668;49.648;8.570;2022-10-31T06:31:59;11.00;99.90
3312;DHT22;1668;49.648;8.570;2022-10-31T06:34:25;11.00;99.90
3312;DHT22;1668;49.648;8.570;2022-10-31T06:36:52;11.00;99.90
3312;DHT22;1668;49.648;8.570;2022-10-31T06:39:19;11.00;99.90
3312;DHT22;1668;49.648;8.570;2022-10-31T06:41:48;11.00;99.90
3312;DHT22;1668;49.648;8.570;2022-10-31T06:44:15;11.00;99.90
3312;DHT22;1668;49.648;8.570;2022-10-31T06:46:42;11.00;99.90
3312;DHT22;1668;49.648;8.570;2022-10-31T06:49:09;11.00;99.90
3312;DHT22;1668;49.648;8.570;2022-10-31T06:51:35;11.00;99.90
3312;DHT22;1668;49.648;8.570;2022-10-31T06:54:03;11.00;99.90
3312;DHT22;1668;49.648;8.570;2022-10-31T06:56:29;11.00;99.90
3312;DHT22;1668;49.648;8.570;2022-10-31T06:58:58;11.00;99.90
3312;DHT22;1668;49.648;8.570;2022-10-31T07:01:24;11.10;99.90
3312;DHT22;1668;49.648;8.570;2022-10-31T07:03:51;11.10;99.90
3312;DHT22;1668;49.648;8.570;2022-10-31T07:06:18;11.10;99.90
3312;DHT22;1668;49.648;8.570;2022-10-31T07:08:45;11.10;99.90
3312;DHT22;1668;49.648;8.570;2022-10-31T07:11:12;11.10;99.90
3312;DHT22;1668;49.648;8.570;2022-10-31T07:13:39;11.10;99.90
3312;DHT22;1668;49.648;8.570;2022-10-31T07:16:08;11.10;99.90
3312;DHT22;1668;49.648;8.570;2022-10-31T07:18:37;11.20;99.90
3312;DHT22;1668;49.648;8.570;2022-10-31T07:21:04;11.20;99.90
3312;DHT22;1668;49.648;8.570;2022-10-31T07:23:32;11.20;99.90
3312;DHT22;1668;49.648;8.570;2022-10-31T07:26:00;11.20;99.90
3312;DHT22;1668;49.648;8.570;2022-10-31T07:28:27;11.10;99.90
3312;DHT22;1668;49.648;8.570;2022-10-31T07:30:56;11.20;99.90
3312;DHT22;1668;49.648;8.570;2022-10-31T07:33:25;11.20;99.90
3312;DHT22;1668;49.648;8.570;2022-10-31T07:35:53;11.20;99.90
3312;DHT22;1668;49.648;8.570;2022-10-31T07:38:20;11.30;99.90
3312;DHT22;1668;49.648;8.570;2022-10-31T07:40:50;11.30;99.90
3312;DHT22;1668;49.648;8.570;2022-10-31T07:43:18;11.30;99.90
3312;DHT22;1668;49.648;8.570;2022-10-31T07:45:49;11.30;99.90
3312;DHT22;1668;49.648;8.570;2022-10-31T07:48:16;11.40;99.90
3312;DHT22;1668;49.648;8.570;2022-10-31T07:50:44;11.40;99.90
3312;DHT22;1668;49.648;8.570;2022-10-31T07:53:13;11.40;99.90
3312;DHT22;1668;49.648;8.570;2022-10-31T07:55:40;11.50;99.90
3312;DHT22;1668;49.648;8.570;2022-10-31T07:58:09;11.50;99.90
3312;DHT22;1668;49.648;8.570;2022-10-31T08:00:37;11.50;99.90
3312;DHT22;1668;49.648;8.570;2022-10-31T08:03:05;11.60;99.90
3312;DHT22;1668;49.648;8.570;2022-10-31T08:05:33;11.60;99.90
3312;DHT22;1668;49.648;8.570;2022-10-31T08:08:02;11.70;99.90
3312;DHT22;1668;49.648;8.570;2022-10-31T08:10:29;11.70;99.90
3312;DHT22;1668;49.648;8.570;2022-10-31T08:12:57;11.70;99.90
3312;DHT22;1668;49.648;8.570;2022-10-31T08:15:24;11.80;99.90
3312;DHT22;1668;49.648;8.570;2022-10-31T08:17:51;11.80;99.90
3312;DHT22;1668;49.648;8.570;2022-10-31T08:20:19;11.90;99.90
3312;DHT22;1668;49.648;8.570;2022-10-31T08:22:54;11.90;99.90
3312;DHT22;1668;49.648;8.570;2022-10-31T08:25:24;11.90;99.90
3312;DHT22;1668;49.648;8.570;2022-10-31T08:27:51;12.00;99.90
3312;DHT22;1668;49.648;8.570;2022-10-31T08:30:19;12.00;99.90
3312;DHT22;1668;49.648;8.570;2022-10-31T08:32:47;12.10;99.90
3312;DHT22;1668;49.648;8.570;2022-10-31T08:35:14;12.20;99.90
3312;DHT22;1668;49.648;8.570;2022-10-31T08:37:41;12.20;99.90
3312;DHT22;1668;49.648;8.570;2022-10-31T08:40:09;12.40;99.90
3312;DHT22;1668;49.648;8.570;2022-10-31T08:42:40;12.40;99.90
3312;DHT22;1668;49.648;8.570;2022-10-31T08:45:07;12.50;99.90
3312;DHT22;1668;49.648;8.570;2022-10-31T08:47:34;12.50;99.90
3312;DHT22;1668;49.648;8.570;2022-10-31T08:50:02;12.60;99.90
3312;DHT22;1668;49.648;8.570;2022-10-31T08:52:30;12.60;99.90
3312;DHT22;1668;49.648;8.570;2022-10-31T08:54:57;12.70;99.90
3312;DHT22;1668;49.648;8.570;2022-10-31T08:57:24;12.80;99.90
3312;DHT22;1668;49.648;8.570;2022-10-31T08:59:52;12.80;99.90
3312;DHT22;1668;49.648;8.570;2022-10-31T09:02:19;12.90;99.90
3312;DHT22;1668;49.648;8.570;2022-10-31T09:04:46;12.90;99.90
3312;DHT22;1668;49.648;8.570;2022-10-31T09:07:13;13.00;99.90
3312;DHT22;1668;49.648;8.570;2022-10-31T09:09:40;13.10;99.90
3312;DHT22;1668;49.648;8.570;2022-10-31T09:12:07;13.10;99.90
3312;DHT22;1668;49.648;8.570;2022-10-31T09:14:34;13.20;99.90
3312;DHT22;1668;49.648;8.570;2022-10-31T09:17:05;13.20;99.90
3312;DHT22;1668;49.648;8.570;2022-10-31T09:19:32;13.30;99.90
3312;DHT22;1668;49.648;8.570;2022-10-31T09:21:59;13.30;99.90
3312;DHT22;1668;49.648;8.570;2022-10-31T09:24:26;13.30;99.90
3312;DHT22;1668;49.648;8.570;2022-10-31T09:26:53;13.40;99.90
3312;DHT22;1668;49.648;8.570;2022-10-31T09:29:20;13.40;99.90
3312;DHT22;1668;49.648;8.570;2022-10-31T09:31:47;13.40;99.90
3312;DHT22;1668;49.648;8.570;2022-10-31T09:34:15;13.40;99.90
3312;DHT22;1668;49.648;8.570;2022-10-31T09:36:42;13.50;99.90
3312;DHT22;1668;49.648;8.570;2022-10-31T09:39:10;13.40;99.90
3312;DHT22;1668;49.648;8.570;2022-10-31T09:41:55;13.50;99.90
3312;DHT22;1668;49.648;8.570;2022-10-31T09:44:30;13.40;99.90
3312;DHT22;1668;49.648;8.570;2022-10-31T09:47:04;13.50;99.90
3312;DHT22;1668;49.648;8.570;2022-10-31T09:49:59;13.40;99.90
3312;DHT22;1668;49.648;8.570;2022-10-31T09:52:29;13.50;99.90
3312;DHT22;1668;49.648;8.570;2022-10-31T09:55:00;13.50;99.90
3312;DHT22;1668;49.648;8.570;2022-10-31T09:57:31;13.60;99.90
3312;DHT22;1668;49.648;8.570;2022-10-31T10:00:00;13.60;99.90
3312;DHT22;1668;49.648;8.570;2022-10-31T10:02:30;13.60;99.90
3312;DHT22;1668;49.648;8.570;2022-10-31T10:05:01;13.70;99.90
3312;DHT22;1668;49.648;8.570;2022-10-31T10:07:38;13.70;99.90
3312;DHT22;1668;49.648;8.570;2022-10-31T10:10:14;13.80;99.90
3312;DHT22;1668;49.648;8.570;2022-10-31T10:13:13;13.80;99.90
3312;DHT22;1668;49.648;8.570;2022-10-31T10:16:12;13.90;99.90
3312;DHT22;1668;49.648;8.570;2022-10-31T10:18:51;13.90;99.90
3312;DHT22;1668;49.648;8.570;2022-10-31T10:21:26;14.00;99.90
3312;DHT22;1668;49.648;8.570;2022-10-31T10:24:03;14.00;99.90
3312;DHT22;1668;49.648;8.570;2022-10-31T10:26:36;14.10;99.90
3312;DHT22;1668;49.648;8.570;2022-10-31T10:29:16;14.20;99.90
3312;DHT22;1668;49.648;8.570;2022-10-31T10:31:46;14.30;99.90
3312;DHT22;1668;49.648;8.570;2022-10-31T10:34:19;14.30;99.90
3312;DHT22;1668;49.648;8.570;2022-10-31T10:36:51;14.40;99.90
3312;DHT22;1668;49.648;8.570;2022-10-31T10:39:23;14.40;99.90
3312;DHT22;1668;49.648;8.570;2022-10-31T10:41:52;14.50;99.90
3312;DHT22;1668;49.648;8.570;2022-10-31T10:44:37;14.60;99.90
3312;DHT22;1668;49.648;8.570;2022-10-31T10:47:22;14.70;99.90
3312;DHT22;1668;49.648;8.570;2022-10-31T10:50:08;14.80;99.90
3312;DHT22;1668;49.648;8.570;2022-10-31T10:52:42;14.90;99.90
3312;DHT22;1668;49.648;8.570;2022-10-31T10:55:18;14.90;99.90
3312;DHT22;1668;49.648;8.570;2022-10-31T10:57:55;15.00;99.90
3312;DHT22;1668;49.648;8.570;2022-10-31T11:00:24;15.10;99.90
3312;DHT22;1668;49.648;8.570;2022-10-31T11:02:51;15.10;99.90
3312;DHT22;1668;49.648;8.570;2022-10-31T11:05:23;15.20;99.90
3312;DHT22;1668;49.648;8.570;2022-10-31T11:07:52;15.30;99.90
3312;DHT22;1668;49.648;8.570;2022-10-31T11:10:19;15.40;99.90
3312;DHT22;1668;49.648;8.570;2022-10-31T11:13:02;15.40;99.90
3312;DHT22;1668;49.648;8.570;2022-10-31T11:15:32;15.50;99.90
3312;DHT22;1668;49.648;8.570;2022-10-31T11:18:00;15.50;99.90
3312;DHT22;1668;49.648;8.570;2022-10-31T11:20:30;15.50;99.90
3312;DHT22;1668;49.648;8.570;2022-10-31T11:23:16;15.60;99.90
3312;DHT22;1668;49.648;8.570;2022-10-31T11:25:51;15.60;99.90
3312;DHT22;1668;49.648;8.570;2022-10-31T11:28:19;15.60;99.90
3312;DHT22;1668;49.648;8.570;2022-10-31T11:30:48;15.60;99.90
3312;DHT22;1668;49.648;8.570;2022-10-31T11:33:18;15.70;99.90
3312;DHT22;1668;49.648;8.570;2022-10-31T11:35:47;15.70;99.90
3312;DHT22;1668;49.648;8.570;2022-10-31T11:38:18;15.70;99.90
3312;DHT22;1668;49.648;8.570;2022-10-31T11:40:53;15.80;99.90
3312;DHT22;1668;49.648;8.570;2022-10-31T11:43:21;15.80;99.90
3312;DHT22;1668;49.648;8.570;2022-10-31T11:45:49;15.80;99.90
3312;DHT22;1668;49.648;8.570;2022-10-31T11:48:18;15.90;99.90
3312;DHT22;1668;49.648;8.570;2022-10-31T11:50:49;15.90;99.90
3312;DHT22;1668;49.648;8.570;2022-10-31T11:53:19;16.00;99.90
3312;DHT22;1668;49.648;8.570;2022-10-31T11:55:47;16.00;99.90
3312;DHT22;1668;49.648;8.570;2022-10-31T11:58:26;16.10;99.90
3312;DHT22;1668;49.648;8.570;2022-10-31T12:00:54;16.10;99.90
3312;DHT22;1668;49.648;8.570;2022-10-31T12:03:46;16.20;99.90
3312;DHT22;1668;49.648;8.570;2022-10-31T12:06:20;16.20;99.90
3312;DHT22;1668;49.648;8.570;2022-10-31T12:08:49;16.30;99.90
3312;DHT22;1668;49.648;8.570;2022-10-31T12:11:33;16.30;99.90
3312;DHT22;1668;49.648;8.570;2022-10-31T12:14:12;16.40;99.90
3312;DHT22;1668;49.648;8.570;2022-10-31T12:16:49;16.30;99.90
3312;DHT22;1668;49.648;8.570;2022-10-31T12:19:24;16.40;99.90
3312;DHT22;1668;49.648;8.570;2022-10-31T12:22:03;16.50;99.90
3312;DHT22;1668;49.648;8.570;2022-10-31T12:24:45;16.50;99.90
3312;DHT22;1668;49.648;8.570;2022-10-31T12:27:24;16.50;99.90
3312;DHT22;1668;49.648;8.570;2022-10-31T12:30:13;16.60;99.90
3312;DHT22;1668;49.648;8.570;2022-10-31T12:32:55;16.60;99.90
3312;DHT22;1668;49.648;8.570;2022-10-31T12:35:47;16.60;99.90
3312;DHT22;1668;49.648;8.570;2022-10-31T12:38:41;16.60;99.90
3312;DHT22;1668;49.648;8.570;2022-10-31T12:41:33;16.60;99.90
3312;DHT22;1668;49.648;8.570;2022-10-31T12:44:06;16.60;99.90
3312;DHT22;1668;49.648;8.570;2022-10-31T12:46:51;16.60;99.90
3312;DHT22;1668;49.648;8.570;2022-10-31T12:49:32;16.70;99.90
3312;DHT22;1668;49.648;8.570;2022-10-31T12:52:15;16.70;99.90
3312;DHT22;1668;49.648;8.570;2022-10-31T12:54:57;16.70;99.90
3312;DHT22;1668;49.648;8.570;2022-10-31T12:57:33;16.70;99.90
3312;DHT22;1668;49.648;8.570;2022-10-31T13:00:05;16.70;99.90
3312;DHT22;1668;49.648;8.570;2022-10-31T13:02:36;16.70;99.90
3312;DHT22;1668;49.648;8.570;2022-10-31T13:05:19;16.70;99.90
3312;DHT22;1668;49.648;8.570;2022-10-31T13:07:53;16.70;99.90
3312;DHT22;1668;49.648;8.570;2022-10-31T13:10:25;16.70;99.90
3312;DHT22;1668;49.648;8.570;2022-10-31T13:12:58;16.70;99.90
3312;DHT22;1668;49.648;8.570;2022-10-31T13:15:28;16.70;99.90
3312;DHT22;1668;49.648;8.570;2022-10-31T13:18:00;16.80;99.90
3312;DHT22;1668;49.648;8.570;2022-10-31T13:20:30;16.80;99.90
3312;DHT22;1668;49.648;8.570;2022-10-31T13:23:08;16.70;99.90
3312;DHT22;1668;49.648;8.570;2022-10-31T13:25:40;16.80;99.90
3312;DHT22;1668;49.648;8.570;2022-10-31T13:28:23;16.80;99.90
3312;DHT22;1668;49.648;8.570;2022-10-31T13:30:51;16.80;99.90
3312;DHT22;1668;49.648;8.570;2022-10-31T13:33:22;16.80;99.90
3312;DHT22;1668;49.648;8.570;2022-10-31T13:35:54;16.80;99.90
3312;DHT22;1668;49.648;8.570;2022-10-31T13:38:26;16.80;99.90
3312;DHT22;1668;49.648;8.570;2022-10-31T13:41:00;16.80;99.90
3312;DHT22;1668;49.648;8.570;2022-10-31T13:43:37;16.80;99.90
3312;DHT22;1668;49.648;8.570;2022-10-31T13:46:22;16.80;99.90
3312;DHT22;1668;49.648;8.570;2022-10-31T13:48:49;16.80;99.90
3312;DHT22;1668;49.648;8.570;2022-10-31T13:51:25;16.80;99.90
3312;DHT22;1668;49.648;8.570;2022-10-31T13:53:58;16.80;99.90
3312;DHT22;1668;49.648;8.570;2022-10-31T14:04:14;16.90;99.90
3312;DHT22;1668;49.648;8.570;2022-10-31T14:06:59;17.00;99.90
3312;DHT22;1668;49.648;8.570;2022-10-31T14:10:05;17.10;99.90
3312;DHT22;1668;49.648;8.570;2022-10-31T14:12:48;17.10;99.90
3312;DHT22;1668;49.648;8.570;2022-10-31T14:15:18;17.20;99.90
3312;DHT22;1668;49.648;8.570;2022-10-31T14:17:47;17.20;99.90
3312;DHT22;1668;49.648;8.570;2022-10-31T14:20:26;17.20;99.90
3312;DHT22;1668;49.648;8.570;2022-10-31T14:22:57;17.20;99.90
3312;DHT22;1668;49.648;8.570;2022-10-31T14:25:29;17.20;99.90
3312;DHT22;1668;49.648;8.570;2022-10-31T14:27:57;17.20;99.90
3312;DHT22;1668;49.648;8.570;2022-10-31T14:30:27;17.20;99.90
3312;DHT22;1668;49.648;8.570;2022-10-31T14:32:58;17.20;99.90
3312;DHT22;1668;49.648;8.570;2022-10-31T14:35:37;17.20;99.90
3312;DHT22;1668;49.648;8.570;2022-10-31T14:38:31;17.30;99.90
3312;DHT22;1668;49.648;8.570;2022-10-31T14:41:23;17.20;99.90
3312;DHT22;1668;49.648;8.570;2022-10-31T14:44:23;17.20;99.90
3312;DHT22;1668;49.648;8.570;2022-10-31T14:47:01;17.20;99.90
3312;DHT22;1668;49.648;8.570;2022-10-31T14:49:59;17.20;99.90
3312;DHT22;1668;49.648;8.570;2022-10-31T14:52:31;17.20;99.90
3312;DHT22;1668;49.648;8.570;2022-10-31T14:54:59;17.10;99.90
3312;DHT22;1668;49.648;8.570;2022-10-31T14:57:30;17.10;99.90
3312;DHT22;1668;49.648;8.570;2022-10-31T15:00:03;17.10;99.90
3312;DHT22;1668;49.648;8.570;2022-10-31T15:02:34;17.00;99.90
3312;DHT22;1668;49.648;8.570;2022-10-31T15:05:07;17.00;99.90
3312;DHT22;1668;49.648;8.570;2022-10-31T15:07:35;17.00;99.90
3312;DHT22;1668;49.648;8.570;2022-10-31T15:10:22;16.90;99.90
3312;DHT22;1668;49.648;8.570;2022-10-31T15:12:52;16.90;99.90
3312;DHT22;1668;49.648;8.570;2022-10-31T15:15:23;16.90;99.90
3312;DHT22;1668;49.648;8.570;2022-10-31T15:17:54;16.90;99.90
3312;DHT22;1668;49.648;8.570;2022-10-31T15:20:24;16.80;99.90
3312;DHT22;1668;49.648;8.570;2022-10-31T15:22:55;16.80;99.90
3312;DHT22;1668;49.648;8.570;2022-10-31T15:25:24;16.80;99.90
3312;DHT22;1668;49.648;8.570;2022-10-31T15:27:52;16.70;99.90
3312;DHT22;1668;49.648;8.570;2022-10-31T15:30:21;16.80;99.90
3312;DHT22;1668;49.648;8.570;2022-10-31T15:32:49;16.70;99.90
3312;DHT22;1668;49.648;8.570;2022-10-31T15:35:21;16.70;99.90
3312;DHT22;1668;49.648;8.570;2022-10-31T15:37:51;16.60;99.90
3312;DHT22;1668;49.648;8.570;2022-10-31T15:40:21;16.60;99.90
3312;DHT22;1668;49.648;8.570;2022-10-31T15:42:51;16.60;99.90
3312;DHT22;1668;49.648;8.570;2022-10-31T15:45:21;16.60;99.90
3312;DHT22;1668;49.648;8.570;2022-10-31T15:47:55;16.50;99.90
3312;DHT22;1668;49.648;8.570;2022-10-31T15:50:35;16.50;99.90
3312;DHT22;1668;49.648;8.570;2022-10-31T15:53:03;16.50;99.90
3312;DHT22;1668;49.648;8.570;2022-10-31T15:55:36;16.50;99.90
3312;DHT22;1668;49.648;8.570;2022-10-31T15:58:13;16.40;99.90
3312;DHT22;1668;49.648;8.570;2022-10-31T16:00:42;16.40;99.90
3312;DHT22;1668;49.648;8.570;2022-10-31T16:03:26;16.40;99.90
3312;DHT22;1668;49.648;8.570;2022-10-31T16:05:54;16.30;99.90
3312;DHT22;1668;49.648;8.570;2022-10-31T16:08:24;16.30;99.90
3312;DHT22;1668;49.648;8.570;2022-10-31T16:10:53;16.30;99.90
3312;DHT22;1668;49.648;8.570;2022-10-31T16:13:25;16.20;99.90
3312;DHT22;1668;49.648;8.570;2022-10-31T16:15:56;16.20;99.90
3312;DHT22;1668;49.648;8.570;2022-10-31T16:18:24;16.20;99.90
3312;DHT22;1668;49.648;8.570;2022-10-31T16:20:53;16.10;99.90
3312;DHT22;1668;49.648;8.570;2022-10-31T16:23:23;16.10;99.90
3312;DHT22;1668;49.648;8.570;2022-10-31T16:25:52;16.00;99.90
3312;DHT22;1668;49.648;8.570;2022-10-31T16:28:21;16.00;99.90
3312;DHT22;1668;49.648;8.570;2022-10-31T16:30:50;15.90;99.90
3312;DHT22;1668;49.648;8.570;2022-10-31T16:33:24;15.90;99.90
3312;DHT22;1668;49.648;8.570;2022-10-31T16:35:52;15.90;99.90
3312;DHT22;1668;49.648;8.570;2022-10-31T16:38:19;15.90;99.90